sensor_id;sensor_type;location;lat;lon;timestamp;pressure;altitude;pressure_sealevel;temperature;humidity
31911;BME280;18457;52.432;16.914;2023-02-27T00:01:54;101310.21;;;1.22;72.67
31911;BME280;18457;52.432;16.914;2023-02-27T00:04:26;101310.19;;;1.28;72.89
31911;BME280;18457;52.432;16.914;2023-02-27T00:06:58;101312.02;;;1.30;72.94
31911;BME280;18457;52.432;16.914;2023-02-27T00:09:30;101314.98;;;1.21;73.09
31911;BME280;18457;52.432;16.914;2023-02-27T00:12:02;101316.31;;;1.12;73.06
31911;BME280;18457;52.432;16.914;2023-02-27T00:14:34;101314.97;;;1.15;73.00
31911;BME280;18457;52.432;16.914;2023-02-27T00:17:06;101314.08;;;1.08;73.00
31911;BME280;18457;52.432;16.914;2023-02-27T00:19:37;101312.79;;;1.07;73.03
31911;BME280;18457;52.432;16.914;2023-02-27T00:22:09;101314.27;;;1.03;73.18
31911;BME280;18457;52.432;16.914;2023-02-27T00:24:41;101313.84;;;1.06;73.26
31911;BME280;18457;52.432;16.914;2023-02-27T00:27:13;101311.10;;;1.04;73.46
31911;BME280;18457;52.432;16.914;2023-02-27T00:29:47;101315.41;;;0.93;73.67
31911;BME280;18457;52.432;16.914;2023-02-27T00:32:19;101317.27;;;0.89;73.94
31911;BME280;18457;52.432;16.914;2023-02-27T00:34:51;101319.77;;;0.90;73.95
31911;BME280;18457;52.432;16.914;2023-02-27T00:37:23;101319.13;;;0.87;74.38
31911;BME280;18457;52.432;16.914;2023-02-27T00:39:56;101322.24;;;0.83;74.47
31911;BME280;18457;52.432;16.914;2023-02-27T00:42:27;101321.61;;;0.80;74.98
31911;BME280;18457;52.432;16.914;2023-02-27T00:45:00;101324.73;;;0.78;75.63
31911;BME280;18457;52.432;16.914;2023-02-27T00:47:34;101325.00;;;0.81;74.78
31911;BME280;18457;52.432;16.914;2023-02-27T00:50:07;101322.39;;;0.76;74.91
31911;BME280;18457;52.432;16.914;2023-02-27T00:52:39;101328.63;;;0.82;74.92
31911;BME280;18457;52.432;16.914;2023-02-27T00:55:11;101332.97;;;0.80;74.81
31911;BME280;18457;52.432;16.914;2023-02-27T00:57:43;101332.25;;;0.73;75.28
31911;BME280;18457;52.432;16.914;2023-02-27T01:00:16;101330.20;;;0.70;76.02
31911;BME280;18457;52.432;16.914;2023-02-27T01:02:48;101328.83;;;0.77;75.39
31911;BME280;18457;52.432;16.914;2023-02-27T01:05:20;101327.02;;;0.71;75.54
31911;BME280;18457;52.432;16.914;2023-02-27T01:07:52;101328.23;;;0.64;75.93
31911;BME280;18457;52.432;16.914;2023-02-27T01:10:24;101328.44;;;0.60;75.87
31911;BME280;18457;52.432;16.914;2023-02-27T01:12:56;101331.84;;;0.55;76.11
31911;BME280;18457;52.432;16.914;2023-02-27T01:15:29;101333.14;;;0.56;76.72
31911;BME280;18457;52.432;16.914;2023-02-27T01:18:01;101333.86;;;0.51;77.00
31911;BME280;18457;52.432;16.914;2023-02-27T01:20:32;101336.20;;;0.46;77.31
31911;BME280;18457;52.432;16.914;2023-02-27T01:23:04;101336.89;;;0.40;77.51
31911;BME280;18457;52.432;16.914;2023-02-27T01:25:36;101336.51;;;0.39;78.04
31911;BME280;18457;52.432;16.914;2023-02-27T01:28:08;101339.78;;;0.41;78.46
31911;BME280;18457;52.432;16.914;2023-02-27T01:30:40;101337.09;;;0.46;77.87
31911;BME280;18457;52.432;16.914;2023-02-27T01:33:12;101339.23;;;0.47;77.76
31911;BME280;18457;52.432;16.914;2023-02-27T01:35:44;101337.19;;;0.44;78.25
31911;BME280;18457;52.432;16.914;2023-02-27T01:38:16;101339.99;;;0.48;78.03
31911;BME280;18457;52.432;16.914;2023-02-27T01:40:48;101342.23;;;0.52;78.47
31911;BME280;18457;52.432;16.914;2023-02-27T01:43:21;101340.96;;;0.50;78.74
31911;BME280;18457;52.432;16.914;2023-02-27T01:45:55;101341.98;;;0.49;78.08
31911;BME280;18457;52.432;16.914;2023-02-27T01:48:31;101340.71;;;0.37;77.95
31911;BME280;18457;52.432;16.914;2023-02-27T01:51:07;101335.35;;;0.36;78.17
31911;BME280;18457;52.432;16.914;2023-02-27T01:53:44;101340.00;;;0.37;78.46
31911;BME280;18457;52.432;16.914;2023-02-27T01:56:19;101337.98;;;0.35;78.54
31911;BME280;18457;52.432;16.914;2023-02-27T01:58:53;101337.14;;;0.31;79.28
31911;BME280;18457;52.432;16.914;2023-02-27T02:01:27;101339.64;;;0.32;79.13
31911;BME280;18457;52.432;16.914;2023-02-27T02:04:03;101344.73;;;0.30;78.87
31911;BME280;18457;52.432;16.914;2023-02-27T02:06:40;101342.60;;;0.24;79.33
31911;BME280;18457;52.432;16.914;2023-02-27T02:09:14;101348.44;;;0.18;79.79
31911;BME280;18457;52.432;16.914;2023-02-27T02:11:47;101349.41;;;0.16;80.32
31911;BME280;18457;52.432;16.914;2023-02-27T02:14:20;101349.77;;;0.10;80.51
31911;BME280;18457;52.432;16.914;2023-02-27T02:17:11;101349.14;;;0.08;80.80
31911;BME280;18457;52.432;16.914;2023-02-27T02:23:32;101348.05;;;0.23;80.51
31911;BME280;18457;52.432;16.914;2023-02-27T02:26:24;101349.98;;;0.16;80.34
31911;BME280;18457;52.432;16.914;2023-02-27T02:32:16;101356.65;;;0.09;80.86
31911;BME280;18457;52.432;16.914;2023-02-27T02:35:06;101356.86;;;0.10;80.83
31911;BME280;18457;52.432;16.914;2023-02-27T02:38:01;101360.61;;;0.05;81.10
31911;BME280;18457;52.432;16.914;2023-02-27T02:40:38;101364.28;;;0.04;81.45
31911;BME280;18457;52.432;16.914;2023-02-27T02:43:22;101367.10;;;0.08;81.12
31911;BME280;18457;52.432;16.914;2023-02-27T02:46:02;101372.89;;;0.06;81.23
31911;BME280;18457;52.432;16.914;2023-02-27T02:48:43;101366.44;;;0.04;81.23
31911;BME280;18457;52.432;16.914;2023-02-27T02:51:21;101368.22;;;-0.01;81.55
31911;BME280;18457;52.432;16.914;2023-02-27T02:54:00;101372.95;;;0.02;81.58
31911;BME280;18457;52.432;16.914;2023-02-27T02:56:37;101374.23;;;0.09;81.34
31911;BME280;18457;52.432;16.914;2023-02-27T02:59:14;101376.92;;;0.04;81.48
31911;BME280;18457;52.432;16.914;2023-02-27T03:01:51;101382.61;;;-0.01;81.82
31911;BME280;18457;52.432;16.914;2023-02-27T03:04:29;101381.20;;;0.05;82.24
31911;BME280;18457;52.432;16.914;2023-02-27T03:07:05;101384.83;;;0.07;82.34
31911;BME280;18457;52.432;16.914;2023-02-27T03:09:43;101389.30;;;0.03;82.61
31911;BME280;18457;52.432;16.914;2023-02-27T03:12:19;101390.12;;;0.00;82.69
31911;BME280;18457;52.432;16.914;2023-02-27T03:14:55;101390.52;;;0.08;82.63
31911;BME280;18457;52.432;16.914;2023-02-27T03:17:36;101391.39;;;0.12;82.55
31911;BME280;18457;52.432;16.914;2023-02-27T03:20:14;101393.98;;;0.15;82.37
31911;BME280;18457;52.432;16.914;2023-02-27T03:22:53;101403.39;;;0.20;82.25
31911;BME280;18457;52.432;16.914;2023-02-27T03:25:26;101401.12;;;0.16;82.77
31911;BME280;18457;52.432;16.914;2023-02-27T03:28:02;101403.53;;;0.24;83.25
31911;BME280;18457;52.432;16.914;2023-02-27T03:30:36;101406.46;;;0.27;83.01
31911;BME280;18457;52.432;16.914;2023-02-27T03:33:14;101405.70;;;0.36;82.66
31911;BME280;18457;52.432;16.914;2023-02-27T03:35:56;101402.67;;;0.46;82.17
31911;BME280;18457;52.432;16.914;2023-02-27T03:38:34;101402.34;;;0.52;81.43
31911;BME280;18457;52.432;16.914;2023-02-27T03:41:13;101404.41;;;0.51;81.45
31911;BME280;18457;52.432;16.914;2023-02-27T03:44:05;101407.77;;;0.29;82.37
31911;BME280;18457;52.432;16.914;2023-02-27T03:46:40;101411.75;;;0.26;83.23
31911;BME280;18457;52.432;16.914;2023-02-27T03:49:12;101413.09;;;0.23;83.48
31911;BME280;18457;52.432;16.914;2023-02-27T03:51:44;101412.02;;;0.18;83.66
31911;BME280;18457;52.432;16.914;2023-02-27T03:54:19;101416.60;;;0.22;84.61
31911;BME280;18457;52.432;16.914;2023-02-27T03:56:56;101422.35;;;0.24;85.16
31911;BME280;18457;52.432;16.914;2023-02-27T03:59:31;101423.89;;;0.22;85.15
31911;BME280;18457;52.432;16.914;2023-02-27T04:02:04;101424.34;;;0.19;85.15
31911;BME280;18457;52.432;16.914;2023-02-27T04:04:36;101427.56;;;0.20;85.21
31911;BME280;18457;52.432;16.914;2023-02-27T04:07:32;101431.19;;;0.22;85.76
31911;BME280;18457;52.432;16.914;2023-02-27T04:10:33;101436.63;;;0.36;84.56
31911;BME280;18457;52.432;16.914;2023-02-27T04:13:36;101440.20;;;0.42;83.96
31911;BME280;18457;52.432;16.914;2023-02-27T04:19:16;101444.15;;;0.43;84.29
31911;BME280;18457;52.432;16.914;2023-02-27T04:22:03;101445.88;;;0.42;84.59
31911;BME280;18457;52.432;16.914;2023-02-27T04:24:45;101445.09;;;0.44;85.24
31911;BME280;18457;52.432;16.914;2023-02-27T04:27:29;101449.89;;;0.50;85.25
31911;BME280;18457;52.432;16.914;2023-02-27T04:30:12;101449.14;;;0.48;85.53
31911;BME280;18457;52.432;16.914;2023-02-27T04:32:50;101446.62;;;0.42;85.26
31911;BME280;18457;52.432;16.914;2023-02-27T04:35:28;101445.90;;;0.42;85.15
31911;BME280;18457;52.432;16.914;2023-02-27T04:38:04;101451.15;;;0.45;85.46
31911;BME280;18457;52.432;16.914;2023-02-27T04:40:41;101453.16;;;0.46;85.55
31911;BME280;18457;52.432;16.914;2023-02-27T04:43:15;101455.58;;;0.40;85.90
31911;BME280;18457;52.432;16.914;2023-02-27T04:45:49;101454.19;;;0.40;86.08
31911;BME280;18457;52.432;16.914;2023-02-27T04:48:25;101452.90;;;0.44;85.95
31911;BME280;18457;52.432;16.914;2023-02-27T04:51:01;101452.46;;;0.47;85.92
31911;BME280;18457;52.432;16.914;2023-02-27T04:53:38;101453.94;;;0.48;86.23
31911;BME280;18457;52.432;16.914;2023-02-27T04:56:15;101455.61;;;0.51;86.16
31911;BME280;18457;52.432;16.914;2023-02-27T04:58:51;101457.27;;;0.52;86.39
31911;BME280;18457;52.432;16.914;2023-02-27T05:01:27;101460.52;;;0.54;86.92
31911;BME280;18457;52.432;16.914;2023-02-27T05:04:02;101460.60;;;0.51;87.02
31911;BME280;18457;52.432;16.914;2023-02-27T05:06:36;101461.92;;;0.53;87.11
31911;BME280;18457;52.432;16.914;2023-02-27T05:09:15;101469.64;;;0.56;86.98
31911;BME280;18457;52.432;16.914;2023-02-27T05:11:55;101470.89;;;0.51;86.96
31911;BME280;18457;52.432;16.914;2023-02-27T05:14:32;101469.41;;;0.54;86.76
31911;BME280;18457;52.432;16.914;2023-02-27T05:17:08;101473.81;;;0.53;86.93
31911;BME280;18457;52.432;16.914;2023-02-27T05:19:42;101479.33;;;0.53;87.01
31911;BME280;18457;52.432;16.914;2023-02-27T05:22:23;101477.85;;;0.51;87.82
31911;BME280;18457;52.432;16.914;2023-02-27T05:24:58;101478.91;;;0.51;87.93
31911;BME280;18457;52.432;16.914;2023-02-27T05:27:36;101479.02;;;0.60;87.69
31911;BME280;18457;52.432;16.914;2023-02-27T05:30:18;101483.09;;;0.59;87.75
31911;BME280;18457;52.432;16.914;2023-02-27T05:32:55;101489.31;;;0.59;88.15
31911;BME280;18457;52.432;16.914;2023-02-27T05:35:31;101489.80;;;0.63;88.38
31911;BME280;18457;52.432;16.914;2023-02-27T05:38:07;101491.62;;;0.64;88.07
31911;BME280;18457;52.432;16.914;2023-02-27T05:40:44;101489.23;;;0.62;88.26
31911;BME280;18457;52.432;16.914;2023-02-27T05:43:21;101492.02;;;0.60;88.02
31911;BME280;18457;52.432;16.914;2023-02-27T05:46:00;101496.33;;;0.61;88.43
31911;BME280;18457;52.432;16.914;2023-02-27T05:48:37;101497.88;;;0.65;88.63
31911;BME280;18457;52.432;16.914;2023-02-27T05:51:13;101500.98;;;0.73;87.85
31911;BME280;18457;52.432;16.914;2023-02-27T05:53:52;101504.10;;;0.76;87.93
31911;BME280;18457;52.432;16.914;2023-02-27T05:56:26;101502.55;;;0.77;87.69
31911;BME280;18457;52.432;16.914;2023-02-27T05:59:01;101505.84;;;0.74;87.69
31911;BME280;18457;52.432;16.914;2023-02-27T06:01:36;101516.60;;;0.83;87.76
31911;BME280;18457;52.432;16.914;2023-02-27T06:04:08;101521.48;;;0.91;87.18
31911;BME280;18457;52.432;16.914;2023-02-27T06:06:40;101522.19;;;0.91;87.93
31911;BME280;18457;52.432;16.914;2023-02-27T06:09:12;101515.36;;;0.83;87.80
31911;BME280;18457;52.432;16.914;2023-02-27T06:11:46;101523.92;;;0.84;88.01
31911;BME280;18457;52.432;16.914;2023-02-27T06:14:17;101526.77;;;0.89;87.82
31911;BME280;18457;52.432;16.914;2023-02-27T06:16:49;101528.11;;;0.92;87.68
31911;BME280;18457;52.432;16.914;2023-02-27T06:19:21;101528.38;;;0.95;87.72
31911;BME280;18457;52.432;16.914;2023-02-27T06:21:53;101526.20;;;0.83;87.58
31911;BME280;18457;52.432;16.914;2023-02-27T06:24:25;101527.61;;;0.93;87.72
31911;BME280;18457;52.432;16.914;2023-02-27T06:26:57;101528.60;;;1.02;87.55
31911;BME280;18457;52.432;16.914;2023-02-27T06:29:29;101529.27;;;0.95;87.44
31911;BME280;18457;52.432;16.914;2023-02-27T06:32:00;101526.33;;;0.87;87.72
31911;BME280;18457;52.432;16.914;2023-02-27T06:34:33;101531.67;;;0.98;88.02
31911;BME280;18457;52.432;16.914;2023-02-27T06:37:04;101532.92;;;0.98;87.80
31911;BME280;18457;52.432;16.914;2023-02-27T06:39:36;101533.24;;;1.02;87.79
31911;BME280;18457;52.432;16.914;2023-02-27T06:42:08;101537.43;;;1.06;87.46
31911;BME280;18457;52.432;16.914;2023-02-27T06:44:40;101536.04;;;1.12;87.02
31911;BME280;18457;52.432;16.914;2023-02-27T06:47:12;101539.38;;;1.16;87.69
31911;BME280;18457;52.432;16.914;2023-02-27T06:49:44;101547.39;;;1.16;87.61
31911;BME280;18457;52.432;16.914;2023-02-27T06:52:15;101549.30;;;1.31;86.61
31911;BME280;18457;52.432;16.914;2023-02-27T06:54:47;101551.27;;;1.37;86.36
31911;BME280;18457;52.432;16.914;2023-02-27T06:57:20;101555.58;;;1.38;86.44
31911;BME280;18457;52.432;16.914;2023-02-27T06:59:51;101560.48;;;1.47;86.00
31911;BME280;18457;52.432;16.914;2023-02-27T07:02:23;101567.40;;;1.46;85.97
31911;BME280;18457;52.432;16.914;2023-02-27T07:04:56;101568.11;;;1.51;85.92
31911;BME280;18457;52.432;16.914;2023-02-27T07:07:27;101564.73;;;1.52;85.78
31911;BME280;18457;52.432;16.914;2023-02-27T07:10:08;101568.83;;;1.52;85.58
31911;BME280;18457;52.432;16.914;2023-02-27T07:12:41;101573.48;;;1.47;85.65
31911;BME280;18457;52.432;16.914;2023-02-27T07:15:14;101578.02;;;1.44;86.09
31911;BME280;18457;52.432;16.914;2023-02-27T07:17:46;101580.66;;;1.49;86.15
31911;BME280;18457;52.432;16.914;2023-02-27T07:20:18;101581.36;;;1.48;85.78
31911;BME280;18457;52.432;16.914;2023-02-27T07:22:49;101585.61;;;1.53;85.34
31911;BME280;18457;52.432;16.914;2023-02-27T07:25:21;101588.11;;;1.65;84.93
31911;BME280;18457;52.432;16.914;2023-02-27T07:27:53;101586.54;;;1.66;85.08
31911;BME280;18457;52.432;16.914;2023-02-27T07:30:25;101588.80;;;1.70;85.11
31911;BME280;18457;52.432;16.914;2023-02-27T07:32:58;101591.63;;;1.63;85.05
31911;BME280;18457;52.432;16.914;2023-02-27T07:35:30;101588.29;;;1.59;85.15
31911;BME280;18457;52.432;16.914;2023-02-27T07:38:02;101587.14;;;1.62;84.76
31911;BME280;18457;52.432;16.914;2023-02-27T07:40:34;101589.27;;;1.68;84.73
31911;BME280;18457;52.432;16.914;2023-02-27T07:43:06;101592.73;;;1.64;84.98
31911;BME280;18457;52.432;16.914;2023-02-27T07:45:38;101594.15;;;1.76;84.88
31911;BME280;18457;52.432;16.914;2023-02-27T07:48:12;101597.23;;;1.77;84.67
31911;BME280;18457;52.432;16.914;2023-02-27T07:50:45;101595.72;;;1.74;84.84
31911;BME280;18457;52.432;16.914;2023-02-27T07:53:18;101595.14;;;1.73;85.14
31911;BME280;18457;52.432;16.914;2023-02-27T07:55:51;101599.90;;;1.72;84.91
31911;BME280;18457;52.432;16.914;2023-02-27T07:58:26;101601.96;;;1.75;85.05
31911;BME280;18457;52.432;16.914;2023-02-27T08:00:59;101600.30;;;1.79;85.44
31911;BME280;18457;52.432;16.914;2023-02-27T08:03:35;101606.38;;;1.86;84.98
31911;BME280;18457;52.432;16.914;2023-02-27T08:06:16;101602.65;;;1.80;84.46
31911;BME280;18457;52.432;16.914;2023-02-27T08:08:54;101604.73;;;1.84;85.04
31911;BME280;18457;52.432;16.914;2023-02-27T08:11:34;101609.44;;;1.92;84.80
31911;BME280;18457;52.432;16.914;2023-02-27T08:14:13;101611.84;;;2.07;84.16
31911;BME280;18457;52.432;16.914;2023-02-27T08:16:56;101612.16;;;2.18;83.19
31911;BME280;18457;52.432;16.914;2023-02-27T08:19:35;101616.90;;;2.21;82.64
31911;BME280;18457;52.432;16.914;2023-02-27T08:22:11;101618.58;;;2.24;82.29
31911;BME280;18457;52.432;16.914;2023-02-27T08:24:45;101616.13;;;2.25;82.65
31911;BME280;18457;52.432;16.914;2023-02-27T08:27:19;101623.58;;;2.18;82.38
31911;BME280;18457;52.432;16.914;2023-02-27T08:29:56;101620.99;;;2.21;82.41
31911;BME280;18457;52.432;16.914;2023-02-27T08:32:37;101625.47;;;2.28;82.20
31911;BME280;18457;52.432;16.914;2023-02-27T08:35:15;101627.84;;;2.30;81.64
31911;BME280;18457;52.432;16.914;2023-02-27T08:37:53;101628.20;;;2.29;82.08
31911;BME280;18457;52.432;16.914;2023-02-27T08:40:27;101631.19;;;2.40;81.74
31911;BME280;18457;52.432;16.914;2023-02-27T08:43:02;101633.34;;;2.59;81.47
31911;BME280;18457;52.432;16.914;2023-02-27T08:45:38;101639.50;;;2.70;80.71
31911;BME280;18457;52.432;16.914;2023-02-27T08:48:16;101640.80;;;2.65;80.50
31911;BME280;18457;52.432;16.914;2023-02-27T08:50:56;101647.09;;;2.73;79.77
31911;BME280;18457;52.432;16.914;2023-02-27T08:53:29;101649.46;;;2.82;79.25
31911;BME280;18457;52.432;16.914;2023-02-27T08:56:03;101653.52;;;2.79;79.15
31911;BME280;18457;52.432;16.914;2023-02-27T08:58:38;101651.57;;;2.80;79.65
31911;BME280;18457;52.432;16.914;2023-02-27T09:01:09;101644.81;;;2.88;79.34
31911;BME280;18457;52.432;16.914;2023-02-27T09:03:45;101648.49;;;2.98;78.49
31911;BME280;18457;52.432;16.914;2023-02-27T09:06:24;101648.39;;;2.95;77.99
31911;BME280;18457;52.432;16.914;2023-02-27T09:09:05;101655.35;;;3.01;78.23
31911;BME280;18457;52.432;16.914;2023-02-27T09:11:41;101656.43;;;3.08;77.87
31911;BME280;18457;52.432;16.914;2023-02-27T09:14:16;101655.52;;;3.07;77.38
31911;BME280;18457;52.432;16.914;2023-02-27T09:16:52;101656.05;;;3.21;77.05
31911;BME280;18457;52.432;16.914;2023-02-27T09:19:27;101661.21;;;3.20;76.63
31911;BME280;18457;52.432;16.914;2023-02-27T09:22:02;101664.92;;;3.25;76.77
31911;BME280;18457;52.432;16.914;2023-02-27T09:24:36;101664.14;;;3.29;76.62
31911;BME280;18457;52.432;16.914;2023-02-27T09:27:09;101670.79;;;3.31;76.30
31911;BME280;18457;52.432;16.914;2023-02-27T09:29:43;101669.70;;;3.31;75.96
31911;BME280;18457;52.432;16.914;2023-02-27T09:32:19;101675.15;;;3.48;75.73
31911;BME280;18457;52.432;16.914;2023-02-27T09:34:57;101679.84;;;3.49;75.20
31911;BME280;18457;52.432;16.914;2023-02-27T09:37:32;101679.25;;;3.55;75.30
31911;BME280;18457;52.432;16.914;2023-02-27T09:40:05;101681.52;;;3.53;74.81
31911;BME280;18457;52.432;16.914;2023-02-27T09:42:44;101682.17;;;3.44;74.53
31911;BME280;18457;52.432;16.914;2023-02-27T09:45:27;101678.34;;;3.40;74.54
31911;BME280;18457;52.432;16.914;2023-02-27T09:48:19;101682.90;;;3.51;74.82
31911;BME280;18457;52.432;16.914;2023-02-27T09:51:06;101685.11;;;3.60;74.62
31911;BME280;18457;52.432;16.914;2023-02-27T09:53:44;101683.60;;;3.72;75.10
31911;BME280;18457;52.432;16.914;2023-02-27T09:56:23;101687.22;;;3.74;75.07
31911;BME280;18457;52.432;16.914;2023-02-27T09:59:08;101688.13;;;3.90;74.57
31911;BME280;18457;52.432;16.914;2023-02-27T10:01:49;101688.67;;;3.97;73.65
31911;BME280;18457;52.432;16.914;2023-02-27T10:04:34;101691.01;;;4.05;73.32
31911;BME280;18457;52.432;16.914;2023-02-27T10:07:15;101696.17;;;4.04;72.72
31911;BME280;18457;52.432;16.914;2023-02-27T10:09:59;101698.79;;;3.94;72.46
31911;BME280;18457;52.432;16.914;2023-02-27T10:12:51;101698.58;;;3.93;72.56
31911;BME280;18457;52.432;16.914;2023-02-27T10:15:33;101696.69;;;4.03;72.68
31911;BME280;18457;52.432;16.914;2023-02-27T10:18:17;101702.97;;;4.04;72.23
31911;BME280;18457;52.432;16.914;2023-02-27T10:21:00;101704.94;;;4.13;72.44
31911;BME280;18457;52.432;16.914;2023-02-27T10:23:40;101704.45;;;4.15;72.10
31911;BME280;18457;52.432;16.914;2023-02-27T10:26:20;101706.73;;;4.21;70.90
31911;BME280;18457;52.432;16.914;2023-02-27T10:28:55;101708.89;;;4.13;70.49
31911;BME280;18457;52.432;16.914;2023-02-27T10:31:32;101704.83;;;4.23;69.72
31911;BME280;18457;52.432;16.914;2023-02-27T10:34:12;101702.44;;;4.28;69.45
31911;BME280;18457;52.432;16.914;2023-02-27T10:36:49;101709.14;;;4.24;68.89
31911;BME280;18457;52.432;16.914;2023-02-27T10:39:27;101705.34;;;4.14;68.83
31911;BME280;18457;52.432;16.914;2023-02-27T10:42:06;101703.00;;;4.14;69.92
31911;BME280;18457;52.432;16.914;2023-02-27T10:44:42;101706.73;;;4.13;69.64
31911;BME280;18457;52.432;16.914;2023-02-27T10:47:17;101704.48;;;4.08;69.15
31911;BME280;18457;52.432;16.914;2023-02-27T10:49:55;101702.95;;;4.03;69.64
31911;BME280;18457;52.432;16.914;2023-02-27T10:52:35;101704.14;;;4.01;70.13
31911;BME280;18457;52.432;16.914;2023-02-27T10:55:30;101697.18;;;3.94;70.45
31911;BME280;18457;52.432;16.914;2023-02-27T10:58:06;101699.61;;;3.98;70.37
31911;BME280;18457;52.432;16.914;2023-02-27T11:00:45;101701.05;;;3.99;69.76
31911;BME280;18457;52.432;16.914;2023-02-27T11:03:22;101703.55;;;3.99;70.22
31911;BME280;18457;52.432;16.914;2023-02-27T11:05:59;101706.35;;;4.19;70.21
31911;BME280;18457;52.432;16.914;2023-02-27T11:08:35;101703.03;;;4.23;68.36
31911;BME280;18457;52.432;16.914;2023-02-27T11:11:13;101696.65;;;4.33;68.72
31911;BME280;18457;52.432;16.914;2023-02-27T11:13:49;101697.59;;;4.44;68.74
31911;BME280;18457;52.432;16.914;2023-02-27T11:16:24;101700.23;;;4.25;65.23
31911;BME280;18457;52.432;16.914;2023-02-27T11:19:01;101701.86;;;4.19;64.92
31911;BME280;18457;52.432;16.914;2023-02-27T11:22:15;101703.48;;;4.19;63.58
31911;BME280;18457;52.432;16.914;2023-02-27T11:24:50;101703.62;;;4.17;62.53
31911;BME280;18457;52.432;16.914;2023-02-27T11:27:23;101699.86;;;4.09;61.30
31911;BME280;18457;52.432;16.914;2023-02-27T11:30:03;101703.70;;;4.05;62.17
31911;BME280;18457;52.432;16.914;2023-02-27T11:32:44;101705.71;;;4.00;62.10
31911;BME280;18457;52.432;16.914;2023-02-27T11:35:24;101703.18;;;4.06;63.00
31911;BME280;18457;52.432;16.914;2023-02-27T11:38:01;101704.41;;;4.05;63.64
31911;BME280;18457;52.432;16.914;2023-02-27T11:40:39;101704.33;;;4.01;63.89
31911;BME280;18457;52.432;16.914;2023-02-27T11:43:26;101701.69;;;4.03;63.90
31911;BME280;18457;52.432;16.914;2023-02-27T11:46:09;101703.77;;;4.01;64.61
31911;BME280;18457;52.432;16.914;2023-02-27T11:49:23;101704.15;;;4.09;64.66
31911;BME280;18457;52.432;16.914;2023-02-27T11:52:11;101700.16;;;4.14;65.21
31911;BME280;18457;52.432;16.914;2023-02-27T11:54:56;101704.08;;;4.22;65.32
31911;BME280;18457;52.432;16.914;2023-02-27T11:57:39;101705.83;;;4.28;64.99
31911;BME280;18457;52.432;16.914;2023-02-27T12:00:28;101699.62;;;4.22;63.95
31911;BME280;18457;52.432;16.914;2023-02-27T12:03:17;101697.78;;;4.20;63.92
31911;BME280;18457;52.432;16.914;2023-02-27T12:05:58;101693.52;;;4.21;63.47
31911;BME280;18457;52.432;16.914;2023-02-27T12:08:37;101695.39;;;4.24;63.40
31911;BME280;18457;52.432;16.914;2023-02-27T12:11:19;101692.11;;;4.30;63.03
31911;BME280;18457;52.432;16.914;2023-02-27T12:14:02;101691.17;;;4.36;62.84
31911;BME280;18457;52.432;16.914;2023-02-27T12:16:41;101697.14;;;4.39;60.69
31911;BME280;18457;52.432;16.914;2023-02-27T12:19:25;101694.59;;;4.54;60.21
31911;BME280;18457;52.432;16.914;2023-02-27T12:22:05;101696.84;;;4.59;59.12
31911;BME280;18457;52.432;16.914;2023-02-27T12:24:43;101693.31;;;4.61;59.32
31911;BME280;18457;52.432;16.914;2023-02-27T12:27:23;101690.53;;;4.74;59.53
31911;BME280;18457;52.432;16.914;2023-02-27T12:30:09;101688.80;;;4.76;58.41
31911;BME280;18457;52.432;16.914;2023-02-27T12:32:54;101690.81;;;4.79;58.36
31911;BME280;18457;52.432;16.914;2023-02-27T12:35:35;101690.78;;;4.60;56.88
31911;BME280;18457;52.432;16.914;2023-02-27T12:38:14;101690.27;;;4.61;57.02
31911;BME280;18457;52.432;16.914;2023-02-27T12:40:56;101695.34;;;4.73;57.49
31911;BME280;18457;52.432;16.914;2023-02-27T12:43:39;101698.70;;;4.79;56.77
31911;BME280;18457;52.432;16.914;2023-02-27T12:46:34;101701.24;;;4.81;56.64
31911;BME280;18457;52.432;16.914;2023-02-27T12:49:36;101697.76;;;4.85;56.44
31911;BME280;18457;52.432;16.914;2023-02-27T12:52:22;101701.34;;;4.86;56.10
31911;BME280;18457;52.432;16.914;2023-02-27T12:55:11;101702.95;;;4.86;56.48
31911;BME280;18457;52.432;16.914;2023-02-27T12:58:05;101702.29;;;4.88;56.58
31911;BME280;18457;52.432;16.914;2023-02-27T13:00:46;101701.30;;;4.75;55.89
31911;BME280;18457;52.432;16.914;2023-02-27T13:03:26;101706.14;;;4.67;56.31
31911;BME280;18457;52.432;16.914;2023-02-27T13:06:11;101707.17;;;4.65;57.23
31911;BME280;18457;52.432;16.914;2023-02-27T13:09:17;101707.08;;;4.61;57.51
31911;BME280;18457;52.432;16.914;2023-02-27T13:12:02;101710.70;;;4.46;57.20
31911;BME280;18457;52.432;16.914;2023-02-27T13:14:48;101711.06;;;4.38;56.60
31911;BME280;18457;52.432;16.914;2023-02-27T13:17:30;101708.52;;;4.36;55.55
31911;BME280;18457;52.432;16.914;2023-02-27T13:23:07;101706.77;;;4.37;57.55
31911;BME280;18457;52.432;16.914;2023-02-27T13:25:48;101710.17;;;4.30;57.82
31911;BME280;18457;52.432;16.914;2023-02-27T13:28:25;101710.49;;;4.45;58.36
31911;BME280;18457;52.432;16.914;2023-02-27T13:31:05;101703.74;;;4.55;58.34
31911;BME280;18457;52.432;16.914;2023-02-27T13:33:46;101706.50;;;4.50;57.30
31911;BME280;18457;52.432;16.914;2023-02-27T13:36:26;101706.25;;;4.55;58.45
31911;BME280;18457;52.432;16.914;2023-02-27T13:39:06;101710.91;;;4.56;58.53
31911;BME280;18457;52.432;16.914;2023-02-27T13:42:03;101714.13;;;4.56;58.15
31911;BME280;18457;52.432;16.914;2023-02-27T13:44:43;101711.41;;;4.62;57.19
31911;BME280;18457;52.432;16.914;2023-02-27T13:50:49;101712.85;;;4.71;57.16
31911;BME280;18457;52.432;16.914;2023-02-27T13:53:23;101716.13;;;4.66;57.08
31911;BME280;18457;52.432;16.914;2023-02-27T13:56:16;101714.41;;;4.70;57.78
31911;BME280;18457;52.432;16.914;2023-02-27T13:58:52;101716.30;;;4.74;57.30
31911;BME280;18457;52.432;16.914;2023-02-27T14:01:31;101711.56;;;4.70;57.35